createdAt,value
2019-01-29T01:01:06.239Z,2.95
2019-01-29T01:06:07.565Z,3.02
2019-01-29T01:11:08.893Z,3.12
2019-01-29T01:16:10.329Z,3.15
2019-01-29T01:21:12.394Z,3.19
2019-01-29T01:26:14.440Z,3.24
2019-01-29T02:34:38.727Z,2.46
2019-01-29T02:39:40.055Z,2.64
2019-01-29T02:44:41.396Z,2.61
2019-01-29T02:49:42.840Z,2.72
2019-01-29T02:54:44.913Z,3.17
2019-01-29T02:59:46.245Z,3.16
2019-01-29T04:01:52.007Z,3.14
2019-01-29T04:06:54.038Z,3.31
2019-01-29T04:11:55.344Z,3.18
2019-01-29T04:16:57.405Z,3.11
2019-01-29T04:21:58.993Z,3.14
2019-01-29T04:27:00.333Z,3.18
2019-01-29T05:35:24.232Z,3.38
2019-01-29T05:40:25.522Z,3.55
2019-01-29T05:45:27.095Z,3.57
2019-01-29T05:50:28.407Z,3.40
2019-01-29T05:55:29.685Z,3.53
2019-01-29T07:03:50.603Z,3.53
2019-01-29T07:08:51.884Z,3.60
2019-01-29T07:13:53.177Z,3.55
2019-01-29T07:18:57.062Z,3.70
2019-01-29T07:23:58.466Z,3.55
2019-01-29T07:29:14.044Z,3.69
2019-01-29T08:31:14.770Z,3.75
2019-01-29T08:36:16.060Z,3.93
2019-01-29T08:41:18.073Z,3.01
2019-01-29T08:46:19.369Z,3.66
2019-01-29T08:51:20.646Z,3.81
2019-01-29T08:56:21.950Z,3.69
2019-01-29T10:04:43.710Z,4.57
2019-01-29T10:09:45.048Z,4.50
2019-01-29T10:14:46.358Z,4.32
2019-01-29T10:19:47.689Z,4.57
2019-01-29T10:24:49.127Z,4.56
2019-01-29T10:29:51.988Z,4.73
2019-01-29T11:31:54.195Z,4.69
2019-01-29T11:36:55.547Z,5.58
2019-01-29T11:41:57.580Z,5.48
2019-01-29T11:46:58.880Z,5.78
2019-01-29T11:52:00.939Z,5.03
2019-01-29T11:57:02.291Z,4.58
2019-01-29T13:05:24.838Z,6.73
2019-01-29T13:10:26.196Z,7.45
2019-01-29T13:15:29.357Z,8.15
2019-01-29T13:20:30.636Z,7.77
2019-01-29T13:25:32.664Z,7.41
2019-01-29T13:30:33.936Z,7.13
2019-01-29T14:32:36.670Z,10.21
2019-01-29T14:37:55.800Z,11.76
2019-01-29T14:42:57.110Z,12.53
2019-01-29T14:47:59.121Z,12.72
2019-01-29T14:53:00.434Z,12.73
2019-01-29T14:58:01.732Z,12.79
2019-01-29T16:01:08.700Z,7.66
2019-01-29T16:06:10.120Z,7.38
2019-01-29T16:11:11.429Z,7.10
2019-01-29T16:16:13.459Z,6.96
2019-01-29T16:21:14.795Z,6.81
2019-01-29T16:26:16.110Z,6.55
2019-01-29T16:31:18.137Z,6.52
2019-01-29T16:36:19.449Z,6.40
2019-01-29T16:41:22.727Z,6.23
2019-01-29T16:46:24.050Z,6.14
2019-01-29T16:51:25.339Z,6.06
2019-01-29T16:56:26.647Z,6.05
2019-01-29T17:01:28.741Z,5.95
2019-01-29T17:06:30.046Z,5.72
2019-01-29T17:11:31.345Z,5.68
2019-01-29T17:16:33.409Z,5.66
2019-01-29T17:21:34.708Z,5.50
2019-01-29T17:26:35.999Z,5.55
2019-01-29T17:31:37.312Z,5.51
2019-01-29T17:36:38.650Z,5.35
2019-01-29T17:41:40.145Z,5.35
2019-01-29T17:46:46.172Z,5.16
2019-01-29T17:51:47.576Z,5.19
2019-01-29T17:56:48.897Z,5.16
2019-01-29T18:01:50.965Z,5.09
2019-01-29T18:06:53.597Z,5.07
2019-01-29T18:11:56.939Z,4.90
2019-01-29T18:16:57.322Z,4.86
2019-01-29T18:21:59.136Z,4.63
2019-01-29T18:27:02.766Z,4.82
2019-01-29T18:32:04.921Z,4.81
2019-01-29T18:37:06.306Z,4.84
2019-01-29T18:42:08.958Z,4.53
2019-01-29T18:47:10.542Z,4.70
2019-01-29T18:52:12.080Z,4.69
2019-01-29T18:57:27.178Z,4.68
2019-01-29T19:02:28.741Z,4.62
2019-01-29T19:07:30.313Z,4.54
2019-01-29T19:12:31.737Z,4.42
2019-01-29T19:17:33.794Z,4.54
2019-01-29T19:22:35.363Z,4.39
2019-01-29T19:27:36.721Z,4.33
2019-01-29T19:32:38.172Z,4.17
2019-01-29T19:37:39.669Z,4.12
2019-01-29T19:42:41.777Z,4.05
2019-01-29T19:47:48.891Z,4.02
2019-01-29T19:52:51.565Z,3.97
2019-01-29T19:58:08.723Z,4.00
2019-01-29T20:03:04.835Z,3.78
2019-01-29T20:08:06.934Z,3.85
2019-01-29T20:13:12.073Z,3.64
2019-01-29T20:18:17.608Z,3.75
2019-01-29T20:23:19.007Z,3.54
2019-01-29T20:28:22.577Z,3.52
2019-01-29T20:33:23.972Z,3.54
2019-01-29T20:38:26.428Z,3.30
2019-01-29T20:43:34.248Z,3.05
2019-01-29T20:48:35.819Z,3.12
2019-01-29T20:53:37.393Z,3.28
2019-01-29T20:58:39.589Z,3.21
2019-01-29T21:03:42.553Z,2.91
2019-01-29T21:08:44.034Z,3.08
2019-01-29T21:13:46.600Z,3.09
2019-01-29T21:18:50.837Z,3.14
2019-01-29T21:23:52.313Z,3.06
2019-01-29T21:29:02.689Z,3.11
2019-01-29T21:33:58.013Z,3.08
2019-01-29T21:39:07.040Z,3.22
2019-01-29T21:44:08.568Z,3.11
2019-01-29T21:49:10.774Z,3.00
2019-01-29T21:54:12.361Z,2.99
2019-01-29T21:59:19.514Z,2.97
2019-01-29T22:04:21.740Z,2.86
2019-01-29T22:09:23.168Z,2.82
2019-01-29T22:14:26.394Z,2.64
2019-01-29T22:19:27.823Z,2.62
2019-01-29T22:24:30.693Z,2.66
2019-01-29T22:29:34.248Z,2.62
2019-01-29T22:34:43.284Z,2.43
2019-01-29T22:39:44.905Z,2.58
2019-01-29T22:44:46.221Z,2.64
2019-01-29T22:49:47.594Z,2.43
2019-01-29T22:54:48.917Z,2.52
2019-01-29T22:59:50.258Z,2.48
2019-01-29T23:30:24.887Z,2.10
2019-01-29T23:35:26.970Z,1.93
2019-01-29T23:40:28.292Z,1.94
2019-01-29T23:45:29.613Z,1.97
2019-01-29T23:50:31.012Z,1.87
2019-01-29T23:55:32.629Z,1.87
